Time;durP1;ratioP1;P1;durP2;ratioP2;P2;SDS_P1;SDS_P2;PMS_P1;PMS_P2;Temp;Humidity;BMP_temperature;BMP_pressure;BME280_temperature;BME280_humidity;BME280_pressure;Samples;Min_cycle;Max_cycle;Signal;HPM_P1;HPM_P2
2023/03/24 00:01:42;;;;;;;1.42;1.15;;;;;;;20.97;40.79;99755.81;5038719;28;20045;-65
2023/03/24 00:04:07;;;;;;;2.13;1.40;;;;;;;20.94;40.88;99744.84;5038338;28;20033;-67
2023/03/24 00:06:35;;;;;;;1.30;1.20;;;;;;;20.92;40.95;99741.63;5042485;28;20041;-66
2023/03/24 00:09:05;;;;;;;1.55;0.93;;;;;;;20.86;40.97;99732.69;5039434;28;20045;-65
2023/03/24 00:11:33;;;;;;;1.33;1.02;;;;;;;20.91;41.06;99740.81;5039331;28;20056;-66
2023/03/24 00:13:59;;;;;;;2.10;1.23;;;;;;;20.92;40.81;99734.50;5038832;28;20044;-66
2023/03/24 00:16:25;;;;;;;1.35;1.25;;;;;;;20.95;40.97;99730.59;5040418;28;20041;-67
2023/03/24 00:18:52;;;;;;;1.55;1.45;;;;;;;20.84;41.19;99718.88;5036112;28;20033;-67
2023/03/24 00:21:20;;;;;;;1.98;1.35;;;;;;;20.95;41.06;99717.38;5038307;28;20109;-67
2023/03/24 00:23:48;;;;;;;1.33;1.05;;;;;;;20.94;41.14;99711.25;5038380;28;20063;-65
2023/03/24 00:26:15;;;;;;;2.90;1.35;;;;;;;20.91;40.88;99708.25;5038321;28;20486;-65
2023/03/24 00:28:43;;;;;;;1.85;1.45;;;;;;;20.80;41.21;99704.44;5035453;28;21801;-66
2023/03/24 00:31:09;;;;;;;1.27;1.10;;;;;;;20.86;41.22;99705.44;5042768;28;20035;-66
2023/03/24 00:33:36;;;;;;;2.88;1.05;;;;;;;20.96;40.82;99697.81;5039328;28;20041;-67
2023/03/24 00:36:05;;;;;;;1.45;1.33;;;;;;;20.90;41.21;99683.63;5043286;28;20045;-67
2023/03/24 00:38:33;;;;;;;2.33;1.65;;;;;;;20.90;41.25;99685.44;5038563;28;20044;-66
2023/03/24 00:40:59;;;;;;;2.17;1.08;;;;;;;20.81;41.03;99684.88;5039540;28;20129;-66
2023/03/24 00:43:27;;;;;;;3.10;1.30;;;;;;;20.92;41.19;99673.63;5041522;28;20044;-66
2023/03/24 00:46:00;;;;;;;1.80;1.27;;;;;;;20.86;41.29;99673.69;5037062;28;20106;-67
2023/03/24 00:48:28;;;;;;;2.58;1.10;;;;;;;20.81;41.32;99666.38;5037005;28;20032;-66
2023/03/24 00:50:53;;;;;;;1.15;1.05;;;;;;;20.83;41.30;99659.06;5041791;28;20036;-66
2023/03/24 00:53:22;;;;;;;2.05;1.48;;;;;;;20.80;41.28;99656.81;5049604;28;20055;-66
2023/03/24 00:55:48;;;;;;;1.92;1.30;;;;;;;20.78;41.43;99661.50;5042256;28;20116;-66
2023/03/24 00:58:18;;;;;;;2.28;1.10;;;;;;;20.87;41.26;99660.22;5040852;28;20055;-66
2023/03/24 01:00:49;;;;;;;1.77;1.30;;;;;;;20.72;41.29;99633.28;5039161;28;20037;-66
2023/03/24 01:03:16;;;;;;;1.15;1.00;;;;;;;20.81;41.31;99646.00;5059748;28;20037;-67
2023/03/24 01:05:47;;;;;;;1.98;1.50;;;;;;;20.81;41.29;99643.34;5038421;28;20083;-66
2023/03/24 01:08:19;;;;;;;1.40;1.30;;;;;;;20.86;41.22;99626.06;5032660;28;20683;-67
2023/03/24 01:10:51;;;;;;;1.40;1.30;;;;;;;20.82;41.33;99633.59;5035544;28;20049;-66
2023/03/24 01:13:36;;;;;;;2.75;1.15;;;;;;;20.76;40.97;99600.88;5043668;28;20542;-66
2023/03/24 01:16:02;;;;;;;1.27;1.17;;;;;;;20.84;41.26;99612.22;5039342;28;21229;-66
2023/03/24 01:18:27;;;;;;;2.55;1.40;;;;;;;20.89;41.16;99620.31;5033148;28;20143;-66
2023/03/24 01:20:53;;;;;;;1.20;1.10;;;;;;;20.94;41.15;99615.19;5038324;28;20036;-65
2023/03/24 01:23:24;;;;;;;2.00;1.15;;;;;;;20.84;40.99;99602.47;5036266;28;20054;-66
2023/03/24 01:25:51;;;;;;;1.77;1.08;;;;;;;20.87;41.24;99599.38;5038071;28;20036;-67
2023/03/24 01:28:26;;;;;;;2.67;1.40;;;;;;;20.73;41.21;99581.97;5040879;28;20033;-66
2023/03/24 01:30:52;;;;;;;3.17;1.20;;;;;;;20.80;41.57;99582.72;5036333;28;20067;-67
2023/03/24 01:33:18;;;;;;;2.35;1.27;;;;;;;20.73;41.53;99581.97;5041132;28;20422;-65
2023/03/24 01:35:44;;;;;;;0.82;0.80;;;;;;;20.75;41.35;99577.28;5046058;28;20037;-66
2023/03/24 01:38:11;;;;;;;1.48;1.13;;;;;;;20.83;41.23;99576.22;5042147;28;20037;-66
2023/03/24 01:40:40;;;;;;;1.35;1.25;;;;;;;20.73;41.70;99572.22;5041867;28;20036;-65
2023/03/24 01:43:12;;;;;;;1.17;1.10;;;;;;;20.86;41.14;99567.84;5046093;28;20079;-66
2023/03/24 01:45:40;;;;;;;2.40;1.20;;;;;;;20.80;41.43;99561.56;5041294;28;20048;-66
2023/03/24 01:48:40;;;;;;;1.70;1.58;;;;;;;20.77;41.44;99549.56;5035809;28;20048;-65
2023/03/24 01:51:13;;;;;;;2.28;1.67;;;;;;;20.81;41.46;99549.94;5034490;28;20034;-67
2023/03/24 01:53:53;;;;;;;1.10;1.00;;;;;;;20.81;41.54;99534.06;5042427;28;20060;-66
2023/03/24 01:56:19;;;;;;;1.63;1.40;;;;;;;20.77;41.32;99536.34;5047735;28;20083;-67
2023/03/24 01:58:54;;;;;;;1.35;1.25;;;;;;;20.80;41.52;99535.09;5037773;28;20041;-66
2023/03/24 02:01:30;;;;;;;1.90;1.25;;;;;;;20.83;41.25;99520.66;5073038;28;20051;-66
2023/03/24 02:04:14;;;;;;;1.60;1.10;;;;;;;20.78;41.66;99521.28;5036833;28;20029;-66
2023/03/24 02:06:43;;;;;;;1.35;0.95;;;;;;;20.80;41.35;99511.28;5046041;28;20106;-67
2023/03/24 02:09:10;;;;;;;1.08;0.93;;;;;;;20.76;41.55;99507.47;5045458;28;20391;-67
2023/03/24 02:11:37;;;;;;;2.13;1.40;;;;;;;20.79;41.48;99507.03;5042059;28;20041;-66
2023/03/24 02:14:06;;;;;;;3.05;1.63;;;;;;;20.78;41.30;99495.63;5040914;28;20039;-66
2023/03/24 02:17:16;;;;;;;1.20;1.10;;;;;;;20.71;41.58;99481.66;5042922;28;20045;-67
2023/03/24 02:19:47;;;;;;;1.30;0.90;;;;;;;20.90;40.90;99489.63;5043681;28;20041;-66
2023/03/24 02:22:51;;;;;;;1.98;1.38;;;;;;;20.78;41.58;99487.69;5041039;28;20476;-65
2023/03/24 02:25:26;;;;;;;1.38;1.08;;;;;;;20.79;41.38;99476.09;5044753;28;20128;-66
2023/03/24 02:28:04;;;;;;;1.50;1.17;;;;;;;20.77;41.67;99490.56;5044546;28;20091;-65
2023/03/24 02:30:48;;;;;;;1.80;1.02;;;;;;;20.80;41.44;99471.59;5042022;28;20045;-65
2023/03/24 02:34:05;;;;;;;2.47;1.42;;;;;;;20.85;41.44;99470.97;5039095;28;20479;-66
2023/03/24 02:37:06;;;;;;;1.17;1.08;;;;;;;20.78;41.71;99463.88;5030442;28;20136;-66
2023/03/24 02:39:44;;;;;;;2.97;1.08;;;;;;;20.77;41.56;99461.47;5042386;28;20057;-66
2023/03/24 02:42:35;;;;;;;1.15;1.00;;;;;;;20.72;41.74;99461.31;5035186;28;20096;-67
2023/03/24 02:45:31;;;;;;;1.55;1.20;;;;;;;20.77;41.38;99453.53;5044890;28;20028;-67
2023/03/24 02:48:32;;;;;;;1.30;1.20;;;;;;;20.72;41.66;99438.31;5052912;28;20025;-66
2023/03/24 02:51:07;;;;;;;;;;;;;;;20.73;41.65;99442.59;5038252;28;20041;-66
2023/03/24 02:54:06;;;;;;;1.40;1.30;;;;;;;20.82;41.23;99440.44;5039276;28;19951;-66
2023/03/24 02:56:43;;;;;;;1.00;0.90;;;;;;;20.74;41.68;99433.63;5041201;28;20095;-65
2023/03/24 02:59:39;;;;;;;1.50;1.20;;;;;;;20.72;41.81;99424.28;5036156;28;20033;-66
2023/03/24 03:02:25;;;;;;;1.67;1.35;;;;;;;20.77;41.83;99417.31;5039960;28;21357;-66
2023/03/24 03:05:12;;;;;;;1.38;0.88;;;;;;;20.72;41.75;99411.06;5041179;28;20059;-67
2023/03/24 03:07:43;;;;;;;1.45;1.23;;;;;;;20.78;41.78;99420.75;5038674;28;20452;-66
2023/03/24 03:10:20;;;;;;;1.10;1.00;;;;;;;20.67;41.76;99405.63;5040856;28;20037;-67
2023/03/24 03:12:51;;;;;;;1.77;1.10;;;;;;;20.79;41.70;99423.19;5054248;28;20036;-66
2023/03/24 03:15:33;;;;;;;1.10;0.85;;;;;;;20.68;41.57;99412.53;5050082;28;20053;-67
2023/03/24 03:18:08;;;;;;;1.58;1.20;;;;;;;20.71;41.71;99406.81;5038224;28;20029;-67
2023/03/24 03:20:38;;;;;;;1.27;0.88;;;;;;;20.78;41.70;99399.59;5041711;28;20147;-66
2023/03/24 03:23:09;;;;;;;1.20;1.10;;;;;;;20.76;41.67;99399.00;5040599;28;20048;-66
2023/03/24 03:25:41;;;;;;;1.50;1.33;;;;;;;20.79;41.68;99399.38;5042740;28;20585;-66
2023/03/24 03:28:09;;;;;;;1.15;1.05;;;;;;;20.65;41.74;99400.56;5046549;28;20136;-67
2023/03/24 03:30:40;;;;;;;1.70;1.30;;;;;;;20.70;41.68;99386.66;5042243;28;20047;-67
2023/03/24 03:33:23;;;;;;;1.75;1.25;;;;;;;20.69;41.98;99390.34;5053926;28;20564;-67
2023/03/24 03:36:05;;;;;;;1.85;1.40;;;;;;;20.81;41.54;99383.28;5054977;28;20037;-66
2023/03/24 03:38:51;;;;;;;1.25;0.93;;;;;;;20.79;41.74;99398.56;5043880;28;20049;-66
2023/03/24 03:41:17;;;;;;;1.30;1.08;;;;;;;20.77;41.84;99398.78;5038263;28;20033;-66
2023/03/24 03:43:46;;;;;;;1.25;0.93;;;;;;;20.79;41.58;99425.81;5046586;28;20043;-66
2023/03/24 03:46:13;;;;;;;1.35;0.80;;;;;;;20.69;42.06;99488.22;5035344;28;20025;-65
2023/03/24 03:48:39;;;;;;;1.52;1.20;;;;;;;20.74;41.81;99483.06;5036107;28;20059;-66
2023/03/24 03:51:05;;;;;;;1.02;0.85;;;;;;;20.70;41.81;99488.00;5037751;28;20069;-66
2023/03/24 03:53:57;;;;;;;1.30;1.15;;;;;;;20.73;41.81;99487.56;5043354;28;20033;-66
2023/03/24 03:56:31;;;;;;;1.38;1.10;;;;;;;20.74;41.63;99496.28;5053934;28;20037;-66
2023/03/24 03:59:23;;;;;;;0.90;0.90;;;;;;;20.68;42.04;99516.50;5036497;28;20158;-65
2023/03/24 04:01:49;;;;;;;1.60;1.10;;;;;;;20.73;41.97;99521.13;5052760;28;20041;-67
2023/03/24 04:04:51;;;;;;;1.58;1.20;;;;;;;20.77;41.66;99527.59;5032610;28;20085;-66
2023/03/24 04:07:56;;;;;;;1.27;1.17;;;;;;;20.77;41.67;99538.19;5070062;28;20091;-67
2023/03/24 04:11:06;;;;;;;2.13;1.13;;;;;;;20.71;41.86;99550.44;5014950;28;20045;-66
2023/03/24 04:14:08;;;;;;;1.05;0.95;;;;;;;20.73;41.80;99550.22;5036512;28;20099;-67
2023/03/24 04:16:58;;;;;;;1.88;1.10;;;;;;;20.69;41.92;99564.94;5042021;28;20164;-66
2023/03/24 04:19:32;;;;;;;1.00;0.80;;;;;;;20.72;41.79;99567.94;5040116;28;20041;-67
2023/03/24 04:22:08;;;;;;;1.05;1.05;;;;;;;20.73;41.79;99579.34;5055857;28;20049;-66
2023/03/24 04:24:50;;;;;;;1.25;0.88;;;;;;;20.69;41.85;99563.09;5052141;28;20044;-67
2023/03/24 04:27:45;;;;;;;0.82;0.82;;;;;;;20.69;41.68;99565.72;5036367;28;20035;-66
2023/03/24 04:30:32;;;;;;;1.00;0.90;;;;;;;20.73;41.76;99582.78;5044220;28;20044;-66
2023/03/24 04:33:16;;;;;;;0.93;0.90;;;;;;;20.71;41.80;99584.84;5055859;28;20115;-67
2023/03/24 04:36:05;;;;;;;1.73;0.93;;;;;;;20.69;41.72;99586.91;5039771;28;20124;-67
2023/03/24 04:38:44;;;;;;;1.27;1.10;;;;;;;20.74;41.78;99595.00;5035777;28;20460;-67
2023/03/24 04:41:28;;;;;;;0.98;0.93;;;;;;;20.52;41.63;99569.94;5040526;28;20040;-66
2023/03/24 04:44:05;;;;;;;1.83;0.98;;;;;;;20.71;41.57;99608.66;5073767;28;20816;-66
2023/03/24 04:46:38;;;;;;;0.80;0.80;;;;;;;20.64;41.70;99618.44;5038783;28;20037;-67
2023/03/24 04:49:09;;;;;;;1.30;1.10;;;;;;;20.57;41.96;99617.69;5039132;28;20811;-67
2023/03/24 04:51:37;;;;;;;1.67;1.00;;;;;;;20.70;41.59;99632.69;5038503;28;20028;-67
2023/03/24 04:54:06;;;;;;;2.13;1.15;;;;;;;20.71;41.63;99636.94;5038476;28;20045;-67
2023/03/24 04:56:46;;;;;;;0.75;0.73;;;;;;;20.61;41.97;99631.28;5044386;28;20387;-67
2023/03/24 04:59:47;;;;;;;0.90;0.70;;;;;;;20.67;41.93;99636.56;5039440;28;20136;-68
2023/03/24 05:02:14;;;;;;;0.88;0.88;;;;;;;20.66;41.76;99639.44;5036993;28;20037;-67
2023/03/24 05:04:50;;;;;;;1.02;0.90;;;;;;;20.63;41.99;99637.19;5034240;28;20143;-67
2023/03/24 05:07:55;;;;;;;0.90;0.90;;;;;;;20.72;41.60;99652.59;5042971;28;20048;-67
2023/03/24 05:10:22;;;;;;;1.60;1.13;;;;;;;20.60;41.86;99656.13;5044259;28;20037;-67
2023/03/24 05:12:55;;;;;;;0.85;0.60;;;;;;;20.65;41.88;99653.69;5043226;28;20065;-67
2023/03/24 05:15:41;;;;;;;1.20;0.90;;;;;;;20.71;41.76;99658.09;5050931;28;20048;-67
2023/03/24 05:18:30;;;;;;;0.85;0.85;;;;;;;20.63;41.80;99671.56;5064297;28;20049;-67
2023/03/24 05:20:56;;;;;;;1.30;0.85;;;;;;;20.65;41.88;99669.53;5039223;28;20048;-67
2023/03/24 05:23:21;;;;;;;0.88;0.82;;;;;;;20.64;41.71;99679.28;5042664;28;20053;-67
2023/03/24 05:25:48;;;;;;;1.65;1.38;;;;;;;20.59;41.89;99675.66;5039369;28;20116;-66
2023/03/24 05:28:15;;;;;;;0.82;0.82;;;;;;;20.70;41.66;99689.03;5036968;28;20034;-67
2023/03/24 05:30:41;;;;;;;0.70;0.70;;;;;;;20.63;41.79;99693.53;5042598;28;20912;-66
2023/03/24 05:33:18;;;;;;;0.88;0.85;;;;;;;20.64;41.55;99700.44;5041053;28;20148;-66
2023/03/24 05:35:43;;;;;;;1.23;0.90;;;;;;;20.66;41.70;99697.63;5041909;28;20120;-66
2023/03/24 05:38:09;;;;;;;2.58;1.10;;;;;;;20.62;41.68;99702.50;5041911;28;20524;-67
2023/03/24 05:40:36;;;;;;;1.15;0.90;;;;;;;20.61;41.78;99700.88;5038199;28;20059;-67
2023/03/24 05:43:19;;;;;;;1.52;1.00;;;;;;;20.62;41.61;99714.91;5043718;28;20514;-67
2023/03/24 05:45:56;;;;;;;1.13;0.65;;;;;;;20.54;41.88;99694.81;5038791;28;20133;-66
2023/03/24 05:48:28;;;;;;;2.45;1.10;;;;;;;20.52;42.05;99702.97;5037794;28;20052;-67
2023/03/24 05:51:06;;;;;;;1.23;0.80;;;;;;;20.51;41.86;99697.91;5041025;28;20068;-66
2023/03/24 05:53:31;;;;;;;1.08;0.90;;;;;;;20.52;41.87;99716.19;5046971;28;20060;-67
2023/03/24 05:56:10;;;;;;;1.88;1.48;;;;;;;20.54;41.73;99720.47;5040922;28;21004;-67
2023/03/24 05:59:02;;;;;;;1.67;1.05;;;;;;;20.56;41.77;99727.16;5045090;28;20046;-67
2023/03/24 06:01:47;;;;;;;1.48;0.90;;;;;;;20.66;41.59;99726.72;5038016;28;20052;-65
2023/03/24 06:04:21;;;;;;;2.10;0.75;;;;;;;20.52;41.61;99718.03;5041693;28;20045;-66
2023/03/24 06:06:48;;;;;;;0.70;0.70;;;;;;;20.55;41.76;99741.41;5049367;28;20033;-66
2023/03/24 06:09:18;;;;;;;0.95;0.80;;;;;;;20.51;41.80;99748.13;5038883;28;20098;-67
2023/03/24 06:11:44;;;;;;;1.42;0.88;;;;;;;20.58;41.81;99746.25;5050045;28;20075;-67
2023/03/24 06:14:10;;;;;;;2.08;0.95;;;;;;;20.64;41.53;99740.13;5039470;28;20782;-66
2023/03/24 06:16:48;;;;;;;1.20;0.60;;;;;;;20.58;41.68;99754.19;5038802;28;20030;-67
2023/03/24 06:19:16;;;;;;;1.67;0.80;;;;;;;20.58;41.78;99758.69;5043443;28;20048;-66
2023/03/24 06:22:06;;;;;;;1.00;0.75;;;;;;;20.55;41.71;99764.41;5038326;28;20064;-67
2023/03/24 06:24:36;;;;;;;1.02;0.70;;;;;;;20.60;41.81;99767.22;5041813;28;20127;-67
2023/03/24 06:27:07;;;;;;;1.17;1.10;;;;;;;20.50;41.89;99765.84;5042541;28;20029;-66
2023/03/24 06:29:35;;;;;;;2.25;1.23;;;;;;;20.47;41.82;99766.25;5042603;28;20076;-67
2023/03/24 06:32:04;;;;;;;2.28;1.20;;;;;;;20.58;41.56;99774.56;5039575;28;20091;-67
2023/03/24 06:34:34;;;;;;;1.60;0.90;;;;;;;20.53;42.00;99775.19;5072148;28;20040;-67
2023/03/24 06:37:13;;;;;;;1.70;1.20;;;;;;;20.49;41.82;99784.56;5051069;28;20128;-67
2023/03/24 06:39:39;;;;;;;1.08;0.65;;;;;;;20.50;41.63;99784.34;5047153;28;20044;-67
2023/03/24 06:42:06;;;;;;;1.55;1.05;;;;;;;20.50;41.70;99787.00;5042643;28;20127;-67
2023/03/24 06:44:32;;;;;;;1.10;1.00;;;;;;;20.42;41.91;99792.50;5041627;28;20037;-67
2023/03/24 06:46:58;;;;;;;3.03;1.15;;;;;;;20.45;41.88;99778.84;5037520;28;20029;-67
2023/03/24 06:49:24;;;;;;;1.48;0.90;;;;;;;20.50;41.77;99796.75;5037444;28;20036;-67
2023/03/24 06:51:50;;;;;;;1.10;0.80;;;;;;;20.50;41.88;99797.56;5042957;28;20037;-67
2023/03/24 06:54:17;;;;;;;1.38;0.88;;;;;;;20.49;41.89;99806.53;5041576;28;20033;-67
2023/03/24 06:56:43;;;;;;;1.77;1.20;;;;;;;20.59;41.66;99811.38;5042182;28;20503;-66
2023/03/24 06:59:09;;;;;;;1.73;1.05;;;;;;;20.51;41.83;99807.13;5038470;28;20042;-67
2023/03/24 07:01:36;;;;;;;1.35;1.00;;;;;;;20.46;41.94;99801.63;5045381;28;20382;-66
2023/03/24 07:04:24;;;;;;;2.65;1.20;;;;;;;20.48;41.75;99819.97;5036822;28;20030;-67
2023/03/24 07:06:50;;;;;;;1.40;0.98;;;;;;;20.44;41.91;99824.84;5044026;28;20037;-67
2023/03/24 07:09:18;;;;;;;1.30;0.93;;;;;;;20.45;41.82;99821.16;5040540;28;20559;-67
2023/03/24 07:11:45;;;;;;;1.70;1.10;;;;;;;20.40;41.95;99826.25;5039507;28;20032;-67
2023/03/24 07:14:11;;;;;;;2.55;0.80;;;;;;;20.43;41.95;99838.25;5038960;28;20090;-66
2023/03/24 07:16:38;;;;;;;2.15;1.00;;;;;;;20.47;41.83;99837.66;5041030;28;20034;-66
2023/03/24 07:19:44;;;;;;;3.15;1.17;;;;;;;20.40;41.90;99843.94;5038954;28;20045;-66
2023/03/24 07:22:28;;;;;;;1.98;1.08;;;;;;;20.39;42.00;99851.06;5039930;28;20108;-67
2023/03/24 07:25:29;;;;;;;3.17;1.10;;;;;;;20.40;42.01;99852.69;5025412;28;20085;-66
2023/03/24 07:28:08;;;;;;;2.25;1.02;;;;;;;20.45;41.89;99854.72;5033096;28;20048;-66
2023/03/24 07:30:35;;;;;;;1.90;1.15;;;;;;;20.36;41.86;99846.19;5036572;28;20049;-67
2023/03/24 07:33:02;;;;;;;1.27;0.73;;;;;;;20.36;42.15;99855.97;5039962;28;20028;-67
2023/03/24 07:35:28;;;;;;;1.05;1.00;;;;;;;20.32;42.07;99867.97;5038263;28;20056;-67
2023/03/24 07:38:00;;;;;;;1.63;0.80;;;;;;;20.39;42.03;99868.75;5038608;28;20135;-66
2023/03/24 07:40:26;;;;;;;2.08;1.02;;;;;;;20.51;41.64;99883.84;5036279;28;20595;-67
2023/03/24 07:42:52;;;;;;;1.58;1.02;;;;;;;20.75;41.20;99871.75;5039507;28;20029;-66
2023/03/24 07:45:20;;;;;;;1.45;1.08;;;;;;;21.15;40.27;99868.13;5040448;28;20080;-66
2023/03/24 07:47:46;;;;;;;3.00;1.40;;;;;;;21.39;40.08;99862.94;5035806;28;20497;-67
2023/03/24 07:50:13;;;;;;;1.50;1.25;;;;;;;21.42;39.94;99870.47;5034693;28;20055;-67
2023/03/24 07:52:42;;;;;;;1.75;0.88;;;;;;;21.43;39.61;99871.28;5031423;28;20037;-67
2023/03/24 07:55:14;;;;;;;1.75;1.00;;;;;;;21.50;39.85;99874.69;5039088;28;20158;-67
2023/03/24 07:57:53;;;;;;;1.58;0.80;;;;;;;21.47;39.62;99876.94;5039567;28;20064;-66
2023/03/24 08:00:20;;;;;;;1.60;0.80;;;;;;;21.41;39.75;99879.44;5045486;28;20096;-66
2023/03/24 08:02:56;;;;;;;1.00;0.70;;;;;;;21.44;39.94;99887.97;5044700;28;20047;-66
2023/03/24 08:05:41;;;;;;;1.27;0.88;;;;;;;21.37;40.05;99895.97;5035634;28;21508;-67
2023/03/24 08:08:33;;;;;;;1.50;0.88;;;;;;;21.36;40.15;99910.19;5034144;28;20068;-66
2023/03/24 08:10:59;;;;;;;2.65;1.13;;;;;;;21.15;40.32;99892.75;5035635;28;20039;-66
2023/03/24 08:13:25;;;;;;;2.40;1.50;;;;;;;21.35;39.96;99908.59;5037396;28;20041;-65
2023/03/24 08:15:52;;;;;;;1.60;0.90;;;;;;;21.29;40.11;99909.44;5058297;28;20426;-66
2023/03/24 08:18:20;;;;;;;1.67;0.95;;;;;;;21.26;40.47;99905.38;5038783;28;20051;-67
2023/03/24 08:20:46;;;;;;;1.73;1.00;;;;;;;21.28;40.41;99913.91;5041138;28;20901;-67
2023/03/24 08:23:12;;;;;;;1.40;1.00;;;;;;;21.10;40.38;99904.00;5037872;28;20049;-68
2023/03/24 08:25:38;;;;;;;1.75;0.82;;;;;;;21.15;40.45;99910.47;5039855;28;20042;-67
2023/03/24 08:28:03;;;;;;;3.83;1.45;;;;;;;21.15;40.39;99929.00;5039590;28;20045;-66
2023/03/24 08:30:29;;;;;;;1.70;1.10;;;;;;;20.97;40.80;99941.09;5041629;28;20049;-67
2023/03/24 08:33:00;;;;;;;2.38;1.10;;;;;;;20.92;41.04;99932.16;5032704;28;20036;-67
2023/03/24 08:35:28;;;;;;;2.13;1.20;;;;;;;21.10;40.71;99940.25;5037023;28;20087;-66
2023/03/24 08:37:54;;;;;;;3.30;1.30;;;;;;;21.08;40.60;99939.63;5041744;28;20090;-67
2023/03/24 08:40:22;;;;;;;3.25;1.15;;;;;;;21.08;40.54;99931.69;5042409;28;20033;-67
2023/03/24 08:43:00;;;;;;;4.05;1.42;;;;;;;21.07;40.50;99928.25;5038182;28;20086;-69
2023/03/24 08:45:29;;;;;;;2.25;1.00;;;;;;;21.02;40.61;99964.31;5040349;28;20609;-68
2023/03/24 08:47:57;;;;;;;2.42;1.00;;;;;;;21.21;40.05;99944.91;5036323;28;20471;-68
2023/03/24 08:50:26;;;;;;;2.22;1.20;;;;;;;20.95;40.73;99952.91;5033543;28;20045;-67
2023/03/24 08:52:53;;;;;;;2.97;1.40;;;;;;;20.97;40.61;99956.16;5032557;28;20082;-68
2023/03/24 08:55:19;;;;;;;1.98;1.20;;;;;;;20.95;40.75;99956.38;5034412;28;20125;-68
2023/03/24 08:57:45;;;;;;;3.42;1.20;;;;;;;21.01;40.74;99960.84;5037062;28;20139;-68
2023/03/24 09:00:15;;;;;;;4.05;1.30;;;;;;;20.85;40.90;99966.59;5050779;28;20056;-68
2023/03/24 09:02:42;;;;;;;1.70;1.10;;;;;;;20.97;40.59;99972.03;5043792;28;20144;-68
2023/03/24 09:05:08;;;;;;;2.42;1.67;;;;;;;20.96;40.46;99970.41;5044706;28;20358;-68
2023/03/24 09:07:34;;;;;;;2.08;1.15;;;;;;;20.98;40.52;99973.66;5041702;28;20128;-68
2023/03/24 09:10:00;;;;;;;2.50;1.25;;;;;;;20.90;40.38;99980.00;5040909;28;20132;-69
2023/03/24 09:12:25;;;;;;;3.28;1.20;;;;;;;20.90;40.38;99969.41;5047952;28;20041;-67
2023/03/24 09:14:51;;;;;;;2.38;1.13;;;;;;;20.88;40.62;99966.16;5059098;28;20051;-67
2023/03/24 09:17:17;;;;;;;3.80;1.30;;;;;;;20.91;40.47;99976.34;5039532;28;20039;-68
2023/03/24 09:19:43;;;;;;;3.90;1.50;;;;;;;20.92;40.29;99985.91;5039536;28;20048;-68
2023/03/24 09:22:10;;;;;;;4.57;1.55;;;;;;;20.96;40.22;99979.16;5039596;28;20048;-68
2023/03/24 09:24:36;;;;;;;3.42;1.38;;;;;;;20.91;40.32;99968.41;5044111;28;20063;-67
2023/03/24 09:27:01;;;;;;;4.07;1.88;;;;;;;20.86;40.22;99977.97;5040903;28;20492;-68
2023/03/24 09:29:28;;;;;;;2.85;1.40;;;;;;;21.01;39.87;99986.50;5050546;28;20120;-68
2023/03/24 09:31:55;;;;;;;3.38;1.50;;;;;;;20.94;40.14;99975.09;5035709;28;20049;-67
2023/03/24 09:34:22;;;;;;;3.05;1.20;;;;;;;21.15;39.44;99974.03;5041366;28;20051;-67
2023/03/24 09:36:48;;;;;;;5.00;2.10;;;;;;;21.52;38.67;99978.59;5047445;28;20049;-67
2023/03/24 09:39:13;;;;;;;2.63;1.42;;;;;;;21.79;38.37;99983.75;5037654;28;21806;-68
2023/03/24 09:41:40;;;;;;;3.63;1.25;;;;;;;21.84;37.86;99968.84;5037232;28;20136;-67
2023/03/24 09:44:30;;;;;;;5.07;1.92;;;;;;;21.88;37.68;99975.34;5038323;28;20101;-68
2023/03/24 09:47:15;;;;;;;3.45;1.52;;;;;;;21.89;38.01;99974.31;5042872;28;20090;-68
2023/03/24 09:49:43;;;;;;;2.85;1.42;;;;;;;21.83;38.13;99982.31;5030437;28;20421;-67
2023/03/24 09:52:12;;;;;;;3.22;1.75;;;;;;;21.80;37.84;99991.50;5042697;28;20071;-67
2023/03/24 09:54:47;;;;;;;3.63;2.17;;;;;;;21.78;37.93;99993.56;5053692;28;20595;-67
2023/03/24 09:57:36;;;;;;;4.75;2.13;;;;;;;21.79;37.95;99997.00;5043876;28;20030;-67
2023/03/24 10:00:16;;;;;;;4.32;1.77;;;;;;;21.60;38.51;100006.69;5038516;28;20033;-67
2023/03/24 10:02:41;;;;;;;;;;;;;;;21.66;38.51;100019.09;5037183;28;20038;-67
2023/03/24 10:05:23;;;;;;;6.53;2.10;;;;;;;21.58;38.69;100019.34;5037348;28;19932;-67
2023/03/24 10:08:16;;;;;;;3.30;1.35;;;;;;;21.56;38.24;100016.91;5038736;28;20111;-68
2023/03/24 10:11:07;;;;;;;3.72;1.50;;;;;;;21.59;38.65;100032.38;5037729;28;20068;-66
2023/03/24 10:14:10;;;;;;;2.95;1.45;;;;;;;21.55;38.28;100028.53;5044624;28;20043;-67
2023/03/24 10:16:56;;;;;;;3.08;1.55;;;;;;;21.51;38.77;100032.59;5030561;28;20085;-68
2023/03/24 10:19:36;;;;;;;3.47;1.58;;;;;;;21.46;38.77;100024.47;5035012;28;20049;-68
2023/03/24 10:22:27;;;;;;;;;;;;;;;21.45;38.65;100030.78;5044695;28;20087;-67
2023/03/24 10:25:14;;;;;;;3.97;1.88;;;;;;;21.42;38.61;100034.69;5046993;28;19925;-67
2023/03/24 10:27:50;;;;;;;4.50;1.70;;;;;;;21.40;38.81;100042.03;5033667;28;20041;-67
2023/03/24 10:30:22;;;;;;;4.93;2.08;;;;;;;21.32;38.43;100018.41;5046528;28;20038;-67
2023/03/24 10:32:48;;;;;;;3.17;1.50;;;;;;;21.35;38.74;100035.69;5041823;28;20037;-67
2023/03/24 10:35:24;;;;;;;6.38;1.95;;;;;;;21.30;38.57;100041.63;5036924;28;20098;-67
2023/03/24 10:37:50;;;;;;;3.58;1.48;;;;;;;21.27;39.05;100044.69;5039094;28;20045;-67
2023/03/24 10:40:19;;;;;;;4.18;1.63;;;;;;;21.17;38.95;100046.91;5036028;28;20041;-67
2023/03/24 10:42:48;;;;;;;6.75;1.98;;;;;;;21.25;39.19;100059.97;5038511;28;20038;-67
2023/03/24 10:45:34;;;;;;;3.15;1.48;;;;;;;21.10;39.26;100040.84;5044718;28;20040;-67
2023/03/24 10:48:01;;;;;;;4.20;1.70;;;;;;;21.03;39.39;100055.94;5039830;28;20223;-67
2023/03/24 10:50:28;;;;;;;3.00;1.63;;;;;;;21.14;39.01;100055.28;5035038;28;20041;-67
2023/03/24 10:52:55;;;;;;;3.95;1.38;;;;;;;21.11;39.09;100034.53;5041839;28;20041;-67
2023/03/24 10:55:28;;;;;;;5.07;1.52;;;;;;;21.12;39.30;100075.84;5042165;28;20041;-67
2023/03/24 10:57:56;;;;;;;4.70;1.77;;;;;;;21.18;38.86;100069.72;5040269;28;20212;-67
2023/03/24 11:00:30;;;;;;;2.30;1.40;;;;;;;21.13;39.06;100062.41;5038568;28;20535;-67
2023/03/24 11:03:00;;;;;;;2.85;1.40;;;;;;;20.96;39.50;100065.69;5042609;28;20389;-67
2023/03/24 11:05:32;;;;;;;6.00;2.25;;;;;;;20.99;39.38;100065.28;5036344;28;20051;-66
2023/03/24 11:08:16;;;;;;;5.10;1.77;;;;;;;21.04;39.12;100068.13;5042703;28;20037;-66
2023/03/24 11:10:42;;;;;;;2.85;1.40;;;;;;;20.87;39.51;100051.06;5042510;28;20044;-67
2023/03/24 11:13:25;;;;;;;3.47;1.70;;;;;;;20.89;39.37;100055.13;5036791;28;20029;-67
2023/03/24 11:16:12;;;;;;;3.22;1.60;;;;;;;20.96;39.36;100065.69;5040436;28;20041;-67
2023/03/24 11:18:57;;;;;;;3.22;1.67;;;;;;;20.91;39.55;100053.09;5037561;28;20512;-66
2023/03/24 11:21:23;;;;;;;5.53;2.25;;;;;;;20.92;39.11;100069.78;5037458;28;20063;-66
2023/03/24 11:23:49;;;;;;;4.03;1.83;;;;;;;20.81;39.50;100065.91;5038619;28;20057;-67
2023/03/24 11:26:27;;;;;;;5.10;1.88;;;;;;;20.83;39.37;100073.66;5039574;28;20049;-66
2023/03/24 11:28:59;;;;;;;4.80;1.75;;;;;;;20.85;39.36;100076.91;5039118;28;21860;-66
2023/03/24 11:31:29;;;;;;;3.60;1.85;;;;;;;20.86;39.44;100071.41;5038896;28;20545;-67
2023/03/24 11:34:09;;;;;;;2.30;1.30;;;;;;;20.77;39.44;100072.63;5028969;28;20055;-67
2023/03/24 11:36:36;;;;;;;4.03;1.67;;;;;;;20.83;39.34;100076.31;5040414;28;20049;-67
2023/03/24 11:39:10;;;;;;;6.28;1.80;;;;;;;20.79;39.32;100062.66;5039475;28;20048;-67
2023/03/24 11:41:39;;;;;;;3.65;1.63;;;;;;;20.83;39.37;100068.38;5038798;28;20069;-66
2023/03/24 11:44:23;;;;;;;3.97;1.65;;;;;;;20.83;39.31;100071.00;5038901;28;20032;-66
2023/03/24 11:46:56;;;;;;;4.18;1.90;;;;;;;20.80;39.28;100066.91;5042981;28;20064;-66
2023/03/24 11:49:27;;;;;;;4.90;1.90;;;;;;;20.82;39.40;100083.41;5040160;28;20108;-68
2023/03/24 11:51:54;;;;;;;4.13;1.52;;;;;;;20.91;38.95;100078.72;5037360;28;20048;-66
2023/03/24 11:54:23;;;;;;;6.38;2.15;;;;;;;20.83;39.20;100069.19;5044963;28;20041;-67
2023/03/24 11:56:51;;;;;;;4.95;1.60;;;;;;;20.78;39.17;100090.94;5040315;28;20498;-67
2023/03/24 11:59:41;;;;;;;3.45;1.80;;;;;;;20.82;39.01;100078.09;5044942;28;20071;-66
2023/03/24 12:02:06;;;;;;;3.55;1.77;;;;;;;20.87;39.09;100072.22;5039687;28;20029;-66
2023/03/24 12:05:01;;;;;;;3.30;1.63;;;;;;;20.85;39.25;100076.91;5043888;28;20171;-67